createdAt,value
2023-04-09T00:01:09.148Z,1.95
2023-04-09T00:03:54.855Z,1.75
2023-04-09T00:06:40.522Z,2.05
2023-04-09T00:09:26.229Z,1.65
2023-04-09T00:12:11.857Z,1.80
2023-04-09T00:14:57.718Z,2.00
2023-04-09T00:17:43.251Z,2.40
2023-04-09T00:20:28.649Z,1.92
2023-04-09T00:23:14.264Z,1.60
2023-04-09T00:26:01.005Z,2.10
2023-04-09T00:28:46.280Z,1.95
2023-04-09T00:31:31.825Z,1.73
2023-04-09T00:34:17.717Z,1.88
2023-04-09T00:37:03.130Z,1.88
2023-04-09T00:39:48.477Z,2.22
2023-04-09T00:42:36.013Z,2.38
2023-04-09T00:45:23.104Z,1.90
2023-04-09T00:48:08.843Z,2.47
2023-04-09T00:50:54.144Z,2.22
2023-04-09T00:53:39.836Z,2.83
2023-04-09T00:56:27.314Z,2.60
2023-04-09T00:59:13.084Z,2.85
2023-04-09T01:01:58.838Z,2.88
2023-04-09T01:04:44.801Z,2.45
2023-04-09T01:07:59.338Z,3.05
2023-04-09T01:10:59.671Z,3.70
2023-04-09T01:13:49.496Z,3.22
2023-04-09T01:16:38.033Z,3.08
2023-04-09T01:19:49.038Z,2.83
2023-04-09T01:22:56.053Z,2.97
2023-04-09T01:25:59.341Z,2.90
2023-04-09T01:28:57.117Z,3.00
2023-04-09T01:31:44.599Z,2.83
2023-04-09T01:34:31.218Z,2.63
2023-04-09T01:37:18.319Z,3.22
2023-04-09T01:40:05.024Z,2.85
2023-04-09T01:42:51.952Z,3.63
2023-04-09T01:45:38.213Z,2.58
2023-04-09T01:48:24.540Z,3.25
2023-04-09T01:51:10.411Z,3.58
2023-04-09T01:53:56.289Z,3.80
2023-04-09T01:56:44.062Z,2.60
2023-04-09T01:59:29.822Z,3.03
2023-04-09T02:02:28.695Z,2.30
2023-04-09T02:05:19.062Z,2.55
2023-04-09T02:08:08.283Z,2.38
2023-04-09T02:10:58.196Z,2.50
2023-04-09T02:13:44.301Z,2.60
2023-04-09T02:16:32.246Z,2.70
2023-04-09T02:19:17.851Z,3.05
2023-04-09T02:22:05.015Z,2.83
2023-04-09T02:24:50.625Z,2.85
2023-04-09T02:27:36.156Z,2.92
2023-04-09T02:30:21.774Z,2.60
2023-04-09T02:33:07.713Z,3.00
2023-04-09T02:35:53.255Z,2.78
2023-04-09T02:38:42.007Z,2.92
2023-04-09T02:41:27.497Z,3.05
2023-04-09T02:44:12.819Z,3.03
2023-04-09T02:46:58.275Z,2.25
2023-04-09T02:49:43.769Z,2.92
2023-04-09T02:52:29.613Z,2.67
2023-04-09T02:55:15.770Z,2.63
2023-04-09T02:58:01.344Z,2.45
2023-04-09T03:00:47.330Z,1.92
2023-04-09T03:03:33.220Z,2.22
2023-04-09T03:06:18.735Z,2.42
2023-04-09T03:09:04.633Z,2.10
2023-04-09T03:11:49.968Z,2.75
2023-04-09T03:14:35.448Z,2.33
2023-04-09T03:17:21.494Z,1.85
2023-04-09T03:20:07.988Z,1.70
2023-04-09T03:22:57.721Z,1.88
2023-04-09T03:25:50.070Z,2.63
2023-04-09T03:28:37.029Z,2.38
2023-04-09T03:31:22.469Z,2.10
2023-04-09T03:34:08.202Z,1.90
2023-04-09T03:36:54.157Z,2.00
2023-04-09T03:39:43.401Z,1.98
2023-04-09T03:42:29.440Z,2.38
2023-04-09T03:45:15.552Z,2.22
2023-04-09T03:48:04.576Z,2.65
2023-04-09T03:50:50.078Z,3.30
2023-04-09T03:53:43.246Z,2.78
2023-04-09T03:56:28.711Z,2.60
2023-04-09T03:59:14.381Z,2.28
2023-04-09T04:02:03.357Z,2.78
2023-04-09T04:04:51.333Z,3.28
2023-04-09T04:07:37.810Z,2.88
2023-04-09T04:10:28.895Z,3.45
2023-04-09T04:13:14.224Z,3.08
2023-04-09T04:16:10.295Z,3.42
2023-04-09T04:18:59.767Z,3.58
2023-04-09T04:21:46.689Z,4.93
2023-04-09T04:24:32.096Z,3.75
2023-04-09T04:27:17.952Z,3.88
2023-04-09T04:30:04.430Z,3.40
2023-04-09T04:33:07.937Z,4.07
2023-04-09T04:36:12.330Z,4.90
2023-04-09T04:39:01.265Z,5.20
2023-04-09T04:41:52.996Z,5.38
2023-04-09T04:44:41.859Z,4.53
2023-04-09T04:47:39.713Z,3.83
2023-04-09T04:50:25.564Z,4.80
2023-04-09T04:53:15.899Z,5.65
2023-04-09T04:56:07.074Z,5.22
2023-04-09T04:58:53.010Z,4.43
2023-04-09T05:01:39.887Z,4.45
2023-04-09T05:04:29.027Z,4.60
2023-04-09T05:07:15.706Z,3.78
2023-04-09T05:10:09.158Z,3.75
2023-04-09T05:12:58.860Z,3.50
2023-04-09T05:15:50.907Z,3.13
2023-04-09T05:18:36.683Z,3.30
2023-04-09T05:21:22.063Z,2.95
2023-04-09T05:24:09.829Z,3.60
2023-04-09T05:26:55.979Z,3.53
2023-04-09T05:29:42.351Z,3.58
2023-04-09T05:32:29.127Z,3.63
2023-04-09T05:35:15.482Z,3.40
2023-04-09T05:38:02.300Z,3.17
2023-04-09T05:40:49.157Z,3.20
2023-04-09T05:43:34.710Z,3.05
2023-04-09T05:46:20.363Z,3.38
2023-04-09T05:49:09.212Z,2.83
2023-04-09T05:51:56.202Z,3.30
2023-04-09T05:54:45.850Z,3.28
2023-04-09T05:57:35.482Z,3.70
2023-04-09T06:00:23.405Z,3.95
2023-04-09T06:03:09.971Z,3.55
2023-04-09T06:05:55.433Z,4.65
2023-04-09T06:08:40.751Z,3.13
2023-04-09T06:11:26.992Z,3.75
2023-04-09T06:14:16.573Z,3.70
2023-04-09T06:17:02.496Z,3.65
2023-04-09T06:19:47.895Z,4.30
2023-04-09T06:22:33.302Z,3.80
2023-04-09T06:25:18.782Z,3.83
2023-04-09T06:28:04.599Z,4.07
2023-04-09T06:30:50.601Z,4.35
2023-04-09T06:33:35.773Z,3.95
2023-04-09T06:36:21.593Z,4.38
2023-04-09T06:39:07.311Z,3.30
2023-04-09T06:41:52.673Z,4.28
2023-04-09T06:44:57.696Z,4.60
2023-04-09T06:47:43.135Z,3.70
2023-04-09T06:50:28.548Z,3.90
2023-04-09T06:53:15.336Z,3.92
2023-04-09T06:56:00.558Z,3.30
2023-04-09T06:58:46.048Z,3.95
2023-04-09T07:01:31.810Z,3.58
2023-04-09T07:04:17.726Z,5.00
2023-04-09T07:07:03.442Z,3.97
2023-04-09T07:09:49.155Z,4.95
2023-04-09T07:12:35.804Z,4.15
2023-04-09T07:15:21.505Z,4.47
2023-04-09T07:18:07.091Z,4.18
2023-04-09T07:20:53.784Z,3.85
2023-04-09T07:23:39.079Z,4.20
2023-04-09T07:26:24.414Z,3.90
2023-04-09T07:29:11.150Z,4.55
2023-04-09T07:31:56.449Z,4.07
2023-04-09T07:34:42.295Z,4.53
2023-04-09T07:37:27.717Z,3.75
2023-04-09T07:40:13.263Z,5.75
2023-04-09T07:42:58.683Z,4.18
2023-04-09T07:45:44.645Z,4.60
2023-04-09T07:48:30.329Z,3.95
2023-04-09T07:51:16.332Z,5.30
2023-04-09T07:54:01.786Z,4.43
2023-04-09T07:56:47.693Z,4.68
2023-04-09T07:59:35.165Z,4.25
2023-04-09T08:02:21.379Z,4.57
2023-04-09T08:05:07.937Z,4.40
2023-04-09T08:07:53.703Z,4.35
2023-04-09T08:10:39.197Z,4.35
2023-04-09T08:13:25.545Z,4.07
2023-04-09T08:16:10.875Z,4.75
2023-04-09T08:18:57.143Z,3.90
2023-04-09T08:21:48.897Z,3.72
2023-04-09T08:24:34.639Z,3.50
2023-04-09T08:27:20.324Z,4.13
2023-04-09T08:30:06.067Z,3.90
2023-04-09T08:32:51.454Z,5.00
2023-04-09T08:35:38.305Z,4.38
2023-04-09T08:38:23.794Z,4.88
2023-04-09T08:41:18.145Z,5.18
2023-04-09T08:44:03.808Z,4.60
2023-04-09T08:46:49.951Z,4.95
2023-04-09T08:49:35.445Z,3.70
2023-04-09T08:52:33.965Z,3.70
2023-04-09T08:55:19.512Z,4.00
2023-04-09T08:58:07.444Z,3.75
2023-04-09T09:00:52.911Z,4.50
2023-04-09T09:03:59.794Z,3.83
2023-04-09T09:06:45.874Z,4.65
2023-04-09T09:09:31.344Z,4.07
2023-04-09T09:12:35.343Z,3.22
2023-04-09T09:15:29.314Z,3.80
2023-04-09T09:18:14.942Z,3.55
2023-04-09T09:21:14.069Z,3.88
2023-04-09T09:23:59.856Z,4.13
2023-04-09T09:26:45.385Z,4.35
2023-04-09T09:29:31.886Z,3.78
2023-04-09T09:32:17.731Z,4.00
2023-04-09T09:35:06.128Z,4.65
2023-04-09T09:38:02.906Z,3.85
2023-04-09T09:40:49.989Z,4.47
2023-04-09T09:43:44.588Z,3.72
2023-04-09T09:46:35.954Z,3.83
2023-04-09T09:49:21.629Z,4.80
2023-04-09T09:52:11.583Z,4.45
2023-04-09T09:55:01.750Z,4.82
2023-04-09T09:57:48.171Z,4.65
2023-04-09T10:00:37.138Z,3.80
2023-04-09T10:03:28.278Z,3.95
2023-04-09T10:06:14.577Z,5.63
2023-04-09T10:09:03.918Z,4.45
2023-04-09T10:11:49.697Z,4.93
2023-04-09T10:14:36.103Z,5.10
2023-04-09T10:17:22.232Z,5.47
2023-04-09T10:20:16.038Z,5.85
2023-04-09T10:23:06.294Z,5.78
2023-04-09T10:25:52.235Z,5.85
2023-04-09T10:28:38.408Z,5.05
2023-04-09T10:31:24.084Z,5.68
2023-04-09T10:34:10.798Z,5.68
2023-04-09T10:36:57.993Z,5.43
2023-04-09T10:39:48.102Z,6.75
2023-04-09T10:42:37.310Z,5.80
2023-04-09T10:45:22.807Z,6.07
2023-04-09T10:48:16.179Z,6.88
2023-04-09T10:51:06.618Z,6.63
2023-04-09T10:53:54.319Z,6.38
2023-04-09T10:56:39.841Z,5.95
2023-04-09T10:59:25.518Z,6.47
2023-04-09T11:02:31.155Z,6.28
2023-04-09T11:05:32.913Z,5.78
2023-04-09T11:08:18.604Z,6.45
2023-04-09T11:11:04.742Z,5.72
2023-04-09T11:13:50.017Z,7.07
2023-04-09T11:16:35.853Z,7.35
2023-04-09T11:19:21.389Z,6.45
2023-04-09T11:22:07.063Z,7.53
2023-04-09T11:24:54.022Z,9.30
2023-04-09T11:27:39.622Z,7.80
2023-04-09T11:30:25.046Z,6.28
2023-04-09T11:33:10.848Z,9.40
2023-04-09T11:35:56.530Z,7.40
2023-04-09T11:38:41.937Z,7.00
2023-04-09T11:41:33.254Z,6.93
2023-04-09T11:44:18.504Z,6.93
2023-04-09T11:47:04.639Z,5.53
2023-04-09T11:49:50.723Z,5.72
2023-04-09T11:52:36.799Z,5.47
2023-04-09T11:55:27.218Z,4.75
2023-04-09T11:58:13.475Z,5.38
2023-04-09T12:00:59.142Z,4.60
2023-04-09T12:03:44.863Z,4.68
2023-04-09T12:06:31.220Z,4.50
2023-04-09T12:09:16.620Z,4.75
2023-04-09T12:12:02.488Z,5.35
2023-04-09T12:14:47.868Z,4.43
2023-04-09T12:17:34.403Z,4.45
2023-04-09T12:20:36.856Z,4.40
2023-04-09T12:26:07.738Z,4.65
2023-04-09T12:28:53.348Z,3.58
2023-04-09T12:31:38.991Z,5.28
2023-04-09T12:34:24.565Z,5.10
2023-04-09T12:37:09.887Z,4.88
2023-04-09T12:39:55.445Z,4.55
2023-04-09T12:42:45.591Z,4.38
2023-04-09T12:45:30.997Z,5.03
2023-04-09T12:48:16.675Z,5.10
2023-04-09T12:51:02.912Z,4.60
2023-04-09T12:53:48.462Z,4.03
2023-04-09T12:56:33.942Z,4.32
2023-04-09T12:59:19.008Z,5.05
2023-04-09T13:02:04.337Z,4.93
2023-04-09T13:04:51.316Z,4.10
2023-04-09T13:07:36.875Z,3.47
2023-04-09T13:10:22.202Z,3.90
2023-04-09T13:13:12.338Z,3.63
2023-04-09T13:15:57.776Z,4.25
2023-04-09T13:18:43.098Z,4.18
2023-04-09T13:21:28.501Z,4.72
2023-04-09T13:24:13.833Z,4.35
2023-04-09T13:26:59.337Z,3.95
2023-04-09T13:29:44.634Z,3.72
2023-04-09T13:32:30.113Z,3.97
2023-04-09T13:35:15.445Z,3.35
2023-04-09T13:38:01.104Z,5.10
2023-04-09T13:40:46.600Z,4.97
2023-04-09T13:43:31.870Z,4.63
2023-04-09T13:46:17.577Z,5.22
2023-04-09T13:49:03.342Z,5.28
2023-04-09T13:51:50.277Z,4.85
2023-04-09T13:54:36.321Z,4.68
2023-04-09T13:57:21.840Z,6.25
2023-04-09T14:00:08.278Z,5.90
2023-04-09T14:02:53.950Z,5.40
2023-04-09T14:05:39.510Z,5.68
2023-04-09T14:08:24.909Z,5.65
2023-04-09T14:11:13.992Z,5.88
2023-04-09T14:13:59.591Z,5.43
2023-04-09T14:16:44.867Z,7.25
2023-04-09T14:19:30.461Z,8.75
2023-04-09T14:22:16.413Z,6.97
2023-04-09T14:25:02.042Z,6.53
2023-04-09T14:27:47.513Z,6.03
2023-04-09T14:30:32.996Z,7.95
2023-04-09T14:33:18.294Z,5.75
2023-04-09T14:36:03.880Z,8.63
2023-04-09T14:38:49.489Z,8.43
2023-04-09T14:41:36.712Z,6.30
2023-04-09T14:44:22.506Z,7.03
2023-04-09T14:47:08.171Z,5.95
2023-04-09T14:49:53.969Z,6.07
2023-04-09T14:52:39.559Z,5.25
2023-04-09T14:55:25.987Z,4.97
2023-04-09T14:58:12.009Z,4.53
2023-04-09T15:00:57.701Z,4.15
2023-04-09T15:03:45.023Z,3.95
2023-04-09T15:06:32.318Z,2.85
2023-04-09T15:09:18.070Z,2.95
2023-04-09T15:12:03.765Z,2.40
2023-04-09T15:14:49.514Z,3.17
2023-04-09T15:17:35.154Z,4.00
2023-04-09T15:20:20.853Z,2.97
2023-04-09T15:23:06.747Z,2.53
2023-04-09T15:25:52.290Z,2.58
2023-04-09T15:28:37.731Z,3.05
2023-04-09T15:31:23.002Z,3.00
2023-04-09T15:34:08.820Z,3.38
2023-04-09T15:36:54.551Z,3.38
2023-04-09T15:39:40.055Z,3.47
2023-04-09T15:42:25.883Z,3.85
2023-04-09T15:45:11.387Z,3.28
2023-04-09T15:47:57.074Z,2.65
2023-04-09T15:50:42.296Z,3.22
2023-04-09T15:53:29.196Z,2.95
2023-04-09T15:56:15.442Z,3.92
2023-04-09T15:59:02.286Z,3.78
2023-04-09T16:01:47.676Z,3.28
2023-04-09T16:04:33.219Z,3.60
2023-04-09T16:07:18.402Z,3.25
2023-04-09T16:10:04.803Z,4.35
2023-04-09T16:12:50.234Z,4.63
2023-04-09T16:15:36.127Z,3.72
2023-04-09T16:18:21.674Z,4.32
2023-04-09T16:21:07.261Z,3.67
2023-04-09T16:23:52.852Z,3.42
2023-04-09T16:26:40.396Z,2.90
2023-04-09T16:29:25.780Z,3.15
2023-04-09T16:32:11.532Z,3.15
2023-04-09T16:35:00.876Z,3.40
2023-04-09T16:37:46.508Z,3.78
2023-04-09T16:40:31.864Z,3.83
2023-04-09T16:43:17.373Z,4.47
2023-04-09T16:46:02.661Z,3.13
2023-04-09T16:48:48.135Z,3.55
2023-04-09T16:51:33.391Z,2.88
2023-04-09T16:54:19.033Z,3.50
2023-04-09T16:57:04.649Z,2.67
2023-04-09T16:59:50.114Z,2.58
2023-04-09T17:02:36.790Z,2.42
2023-04-09T17:05:22.611Z,3.72
2023-04-09T17:08:08.145Z,3.15
2023-04-09T17:11:01.807Z,3.17
2023-04-09T17:13:47.296Z,2.72
2023-04-09T17:16:33.307Z,2.38
2023-04-09T17:19:18.924Z,2.22
2023-04-09T17:22:05.020Z,2.78
2023-04-09T17:24:50.624Z,3.08
2023-04-09T17:27:36.269Z,2.65
2023-04-09T17:30:21.881Z,2.85
2023-04-09T17:33:07.522Z,3.83
2023-04-09T17:35:53.133Z,5.28
2023-04-09T17:38:38.534Z,6.35
2023-04-09T17:41:24.196Z,8.18
2023-04-09T17:44:09.788Z,10.77
2023-04-09T17:46:55.152Z,7.45
2023-04-09T17:49:40.605Z,5.95
2023-04-09T17:52:26.076Z,5.13
2023-04-09T17:55:13.183Z,5.80
2023-04-09T17:57:58.606Z,5.18
2023-04-09T18:00:44.415Z,5.68
2023-04-09T18:03:30.044Z,4.53
2023-04-09T18:06:15.834Z,3.72
2023-04-09T18:09:01.491Z,4.35
2023-04-09T18:11:47.328Z,4.72
2023-04-09T18:14:32.753Z,3.60
2023-04-09T18:17:18.222Z,3.60
2023-04-09T18:20:03.599Z,4.40
2023-04-09T18:22:49.662Z,5.78
2023-04-09T18:25:35.144Z,6.55
2023-04-09T18:28:20.748Z,5.30
2023-04-09T18:31:06.497Z,5.07
2023-04-09T18:33:52.429Z,3.80
2023-04-09T18:36:37.991Z,4.50
2023-04-09T18:39:23.511Z,4.63
2023-04-09T18:42:09.386Z,4.30
2023-04-09T18:44:55.011Z,2.58
2023-04-09T18:47:40.817Z,3.53
2023-04-09T18:50:26.491Z,5.15
2023-04-09T18:53:12.205Z,4.28
2023-04-09T18:55:57.639Z,2.90
2023-04-09T18:58:43.031Z,5.45
2023-04-09T19:01:28.506Z,3.63
2023-04-09T19:04:14.239Z,3.13
2023-04-09T19:06:59.654Z,3.10
2023-04-09T19:09:44.969Z,2.85
2023-04-09T19:12:30.512Z,2.70
2023-04-09T19:15:16.132Z,2.80
2023-04-09T19:18:01.926Z,2.28
2023-04-09T19:20:48.008Z,2.53
2023-04-09T19:23:36.523Z,2.70
2023-04-09T19:26:22.304Z,2.53
2023-04-09T19:29:08.345Z,3.10
2023-04-09T19:31:53.670Z,1.85
2023-04-09T19:34:39.499Z,2.25
2023-04-09T19:37:28.023Z,1.67
2023-04-09T19:40:15.593Z,2.13
2023-04-09T19:43:01.691Z,1.77
2023-04-09T19:45:47.283Z,2.55
2023-04-09T19:48:32.979Z,2.90
2023-04-09T19:51:20.113Z,1.80
2023-04-09T19:54:05.841Z,1.65
2023-04-09T19:56:51.471Z,1.80
2023-04-09T19:59:39.839Z,1.83
2023-04-09T20:02:25.644Z,1.85
2023-04-09T20:05:11.680Z,2.42
2023-04-09T20:07:57.377Z,1.92
2023-04-09T20:10:45.044Z,2.42
2023-04-09T20:13:30.758Z,1.73
2023-04-09T20:16:16.160Z,2.00
2023-04-09T20:19:01.545Z,3.05
2023-04-09T20:21:46.965Z,2.00
2023-04-09T20:24:32.383Z,2.15
2023-04-09T20:27:18.547Z,2.13
2023-04-09T20:30:04.643Z,1.92
2023-04-09T20:32:50.338Z,2.80
2023-04-09T20:35:36.578Z,2.00
2023-04-09T20:38:22.425Z,2.15
2023-04-09T20:41:07.898Z,1.65
2023-04-09T20:43:53.114Z,2.03
2023-04-09T20:46:38.635Z,2.13
2023-04-09T20:49:24.091Z,3.17
2023-04-09T20:52:09.984Z,2.55
2023-04-09T20:54:57.106Z,2.40
2023-04-09T20:57:42.735Z,2.92
2023-04-09T21:00:27.975Z,1.60
2023-04-09T21:03:14.415Z,1.52
2023-04-09T21:06:00.367Z,1.88
2023-04-09T21:08:46.086Z,1.75
2023-04-09T21:11:31.605Z,1.75
2023-04-09T21:14:16.984Z,2.05
2023-04-09T21:17:02.558Z,1.70
2023-04-09T21:19:49.393Z,1.63
2023-04-09T21:22:35.421Z,2.22
2023-04-09T21:25:21.211Z,1.85
2023-04-09T21:28:07.164Z,1.80
2023-04-09T21:30:52.613Z,2.13
2023-04-09T21:33:39.277Z,2.03
2023-04-09T21:36:26.610Z,2.15
2023-04-09T21:39:12.558Z,2.03
2023-04-09T21:41:58.298Z,1.40
2023-04-09T21:44:43.465Z,1.88
2023-04-09T21:47:28.766Z,1.33
2023-04-09T21:50:14.742Z,1.50
2023-04-09T21:53:00.748Z,1.38
2023-04-09T21:55:46.434Z,1.00
2023-04-09T21:58:31.807Z,1.42
2023-04-09T22:01:26.516Z,1.17
2023-04-09T22:04:14.822Z,1.33
2023-04-09T22:07:00.396Z,1.40
2023-04-09T22:09:45.865Z,1.25
2023-04-09T22:12:31.252Z,1.15
2023-04-09T22:15:17.215Z,0.82
2023-04-09T22:18:02.957Z,0.80
2023-04-09T22:20:48.631Z,0.98
2023-04-09T22:23:33.848Z,0.77
2023-04-09T22:26:19.831Z,0.82
2023-04-09T22:29:06.818Z,0.70
2023-04-09T22:31:52.642Z,0.70
2023-04-09T22:34:38.309Z,0.57
2023-04-09T22:37:23.589Z,0.70
2023-04-09T22:40:14.366Z,0.93
2023-04-09T22:43:00.141Z,0.70
2023-04-09T22:45:53.395Z,0.70
2023-04-09T22:48:44.476Z,0.82
2023-04-09T22:51:41.736Z,0.60
2023-04-09T22:54:27.252Z,0.70
2023-04-09T22:57:12.471Z,0.68
2023-04-09T22:59:57.965Z,0.50
2023-04-09T23:02:43.496Z,0.55
2023-04-09T23:05:29.117Z,0.68
2023-04-09T23:08:14.632Z,0.38
2023-04-09T23:10:59.848Z,0.40
2023-04-09T23:13:45.399Z,0.32
2023-04-09T23:16:31.187Z,0.38
2023-04-09T23:19:16.517Z,0.50
2023-04-09T23:22:02.034Z,0.45
2023-04-09T23:24:47.493Z,0.30
2023-04-09T23:27:32.821Z,0.40
2023-04-09T23:30:18.332Z,0.65
2023-04-09T23:33:04.050Z,0.30
2023-04-09T23:35:49.816Z,0.50
2023-04-09T23:38:35.452Z,0.82
2023-04-09T23:41:21.074Z,0.70
2023-04-09T23:44:06.455Z,0.68
2023-04-09T23:46:53.278Z,0.82
2023-04-09T23:49:38.821Z,1.02
2023-04-09T23:52:26.145Z,0.70
2023-04-09T23:55:12.143Z,1.23
2023-04-09T23:57:57.845Z,1.10
